Harlow, United Kingdom
Current Conditions -  °F | °C
As of 6:50 AM on Friday 31 Oct 2014 (Local Time) from EGSS Reporting Station
Haze Haze  
Wind Chill: 54°   Ceiling: Unl
Heat Index: 54°   Visibility: 2mi
Dew Point: 54°   Wind: 6mph
Humidity: 100%   Direction: 170°S
Pressure: 30.06"   Gusts: NA
Location:  51.78°N, 0.11°E
Report Text: EGSS 310650Z 17005KT 3300 BR NSC 12/12 Q1018
Loading
Personal Weather Stations






























Interactive Weather Map
Tropical Storm Tracking
New forecast layout! Learn more

10-Day Weather Forecast

Advertisements
Track Severe Weather on mobile